Terminal Aerodrome Forecast
Issued by NWS Jackson, KY

Home | Current Version | Previous Version | Text Only | Print | Product List | Glossary On
Versions: 1 2 3 4 5 6 7 8 9 10 11 12 13 14
000
FTUS43 KJKL 012300
TAFLOZ
TAF
KLOZ 012340Z 0200/0224 VRB03KT P6SM SCT050
     FM020800 00000KT 4SM BR SKC
     FM021000 00000KT 2SM BR SKC
     FM021300 35005KT P6SM SCT060=

USA.gov is the U.S. government's official web portal to all federal, state and local government web resources and services.